Time;durP1;ratioP1;P1;durP2;ratioP2;P2;SDS_P1;SDS_P2;PMS_P1;PMS_P2;Temp;Humidity;BMP_temperature;BMP_pressure;BME280_temperature;BME280_humidity;BME280_pressure;Samples;Min_cycle;Max_cycle;Signal;HPM_P1;HPM_P2
2022/06/01 00:01:49;;;;;;;11.25;8.38;;;;;;;14.46;54.03;101283.16;4974296;28;123716;-68
2022/06/01 00:04:17;;;;;;;11.23;8.63;;;;;;;14.41;54.09;101281.59;4969549;28;123175;-68
2022/06/01 00:06:49;;;;;;;12.20;8.90;;;;;;;14.39;53.93;101277.28;4974002;28;113702;-68
2022/06/01 00:09:16;;;;;;;11.88;8.98;;;;;;;14.35;54.30;101271.28;4990559;28;113747;-68
2022/06/01 00:11:43;;;;;;;10.40;8.40;;;;;;;14.32;54.20;101281.25;4966749;28;122954;-68
2022/06/01 00:14:11;;;;;;;12.02;8.38;;;;;;;14.29;54.16;101281.41;4974309;28;124858;-68
2022/06/01 00:16:38;;;;;;;13.13;8.77;;;;;;;14.27;54.01;101277.97;4973313;28;114787;-68
2022/06/01 00:19:07;;;;;;;10.40;8.50;;;;;;;14.24;54.31;101272.78;4975492;28;113907;-68
2022/06/01 00:22:11;;;;;;;11.48;8.90;;;;;;;14.21;54.16;101280.00;4973431;28;122053;-68
2022/06/01 00:24:22;;;;;;;11.60;8.98;;;;;;;14.17;54.33;101273.13;4991493;28;123897;-68
2022/06/01 00:26:50;;;;;;;12.88;9.77;;;;;;;14.14;54.37;101278.59;4976539;28;113477;-68
2022/06/01 00:29:17;;;;;;;11.07;9.23;;;;;;;14.12;54.46;101290.28;4989026;28;112877;-67
2022/06/01 00:31:45;;;;;;;13.23;10.00;;;;;;;14.09;54.38;101291.31;4973916;28;125536;-68
2022/06/01 00:34:12;;;;;;;13.43;9.82;;;;;;;14.06;54.42;101291.47;4974194;28;124079;-67
2022/06/01 00:36:39;;;;;;;14.57;10.00;;;;;;;14.03;54.42;101286.28;4977562;28;114793;-68
2022/06/01 00:39:06;;;;;;;13.00;9.77;;;;;;;14.00;54.55;101281.16;4972957;28;116307;-68
2022/06/01 00:41:34;;;;;;;13.52;10.05;;;;;;;13.98;54.43;101280.38;4977335;28;124059;-68
2022/06/01 00:44:01;;;;;;;14.32;10.18;;;;;;;13.97;54.66;101281.28;4988619;28;122875;-68
2022/06/01 00:46:28;;;;;;;13.10;9.85;;;;;;;13.95;54.67;101283.19;4974566;28;115841;-68
2022/06/01 00:49:01;;;;;;;14.27;10.85;;;;;;;13.92;54.82;101280.66;4974336;28;115822;-68
2022/06/01 00:51:28;;;;;;;15.05;11.10;;;;;;;13.90;54.63;101286.09;4987970;28;123673;-68
2022/06/01 00:53:57;;;;;;;15.50;11.63;;;;;;;13.87;54.67;101285.41;4978807;28;123891;-69
2022/06/01 00:56:34;;;;;;;13.43;10.60;;;;;;;13.86;54.98;101283.66;4976041;28;114228;-68
2022/06/01 00:59:05;;;;;;;15.65;11.40;;;;;;;13.83;55.04;101285.53;4970881;28;114042;-68
2022/06/01 01:01:32;;;;;;;15.55;11.45;;;;;;;13.83;55.00;101288.19;4972799;28;123837;-68
2022/06/01 01:04:01;;;;;;;15.68;11.32;;;;;;;13.83;54.96;101280.22;4975150;28;124572;-68
2022/06/01 01:06:35;;;;;;;17.67;12.75;;;;;;;13.81;54.97;101276.78;4972533;28;114447;-68
2022/06/01 01:09:03;;;;;;;17.08;12.43;;;;;;;13.81;55.13;101284.75;4972299;28;114154;-68
2022/06/01 01:11:46;;;;;;;18.67;13.38;;;;;;;13.80;55.17;101279.50;4973991;28;124051;-68
2022/06/01 01:14:16;;;;;;;16.48;12.80;;;;;;;13.79;55.27;101278.66;4973013;28;123626;-68
2022/06/01 01:16:43;;;;;;;16.83;12.75;;;;;;;13.78;55.21;101276.91;4973682;28;114301;-68
2022/06/01 01:19:32;;;;;;;18.63;13.23;;;;;;;13.76;55.31;101278.81;4974763;28;114190;-68
2022/06/01 01:22:37;;;;;;;19.23;13.30;;;;;;;13.74;55.25;101270.03;4972392;28;123317;-68
2022/06/01 01:25:18;;;;;;;17.40;12.75;;;;;;;13.71;55.45;101275.53;4969890;28;123487;-68
2022/06/01 01:27:47;;;;;;;17.38;13.18;;;;;;;13.71;55.33;101275.53;4983813;28;113330;-68
2022/06/01 01:30:37;;;;;;;17.70;13.35;;;;;;;13.70;55.30;101273.81;4984791;28;113656;-68
2022/06/01 01:33:12;;;;;;;19.13;13.82;;;;;;;13.70;55.52;101279.13;4971686;28;123191;-68
2022/06/01 01:35:41;;;;;;;18.83;13.35;;;;;;;13.71;55.70;101280.88;4969834;28;125414;-68
2022/06/01 01:38:16;;;;;;;19.25;13.25;;;;;;;13.73;55.77;101278.09;4982295;28;115066;-68
2022/06/01 01:40:44;;;;;;;17.95;13.38;;;;;;;13.73;55.57;101272.78;4971091;28;114532;-68
2022/06/01 01:43:11;;;;;;;19.67;13.90;;;;;;;13.74;55.69;101278.03;4974136;28;123723;-68
2022/06/01 01:45:38;;;;;;;19.33;13.95;;;;;;;13.75;55.47;101277.09;4975602;28;124432;-68
2022/06/01 01:48:06;;;;;;;17.63;13.20;;;;;;;13.75;55.73;101276.22;4975184;28;114170;-68
2022/06/01 01:50:33;;;;;;;18.85;13.90;;;;;;;13.75;55.53;101279.75;4973597;28;114606;-68
2022/06/01 01:53:00;;;;;;;18.80;13.65;;;;;;;13.75;55.67;101290.41;4970683;28;123553;-69
2022/06/01 01:55:50;;;;;;;18.05;13.70;;;;;;;13.72;55.69;101287.88;4983086;28;123644;-68
2022/06/01 01:58:34;;;;;;;17.83;13.32;;;;;;;13.67;55.80;101276.59;4972972;28;114710;-68
2022/06/01 02:01:11;;;;;;;20.92;13.98;;;;;;;13.65;55.77;101275.81;4975484;28;112924;-69
2022/06/01 02:03:50;;;;;;;19.25;14.02;;;;;;;13.66;55.73;101277.56;4970401;28;123649;-68
2022/06/01 02:06:28;;;;;;;18.95;13.55;;;;;;;13.69;56.16;101277.38;4969214;28;124549;-68
2022/06/01 02:09:01;;;;;;;20.65;13.80;;;;;;;13.69;56.18;101277.38;4969391;28;114135;-68
2022/06/01 02:14:50;;;;;;;18.50;13.68;;;;;;;13.64;55.63;101284.78;4990363;28;123554;-69
2022/06/01 02:17:57;;;;;;;19.38;14.07;;;;;;;13.60;55.66;101289.38;4970967;28;123590;-68
2022/06/01 02:20:34;;;;;;;18.95;13.95;;;;;;;13.61;56.03;101290.25;4915170;28;114837;-68
2022/06/01 02:23:02;;;;;;;19.27;14.75;;;;;;;13.64;56.06;101287.44;4968636;28;112777;-69
2022/06/01 02:25:30;;;;;;;19.60;14.07;;;;;;;13.66;56.23;101288.22;4970158;28;123770;-68
2022/06/01 02:27:58;;;;;;;18.63;13.88;;;;;;;13.70;56.40;101284.44;4972366;28;123754;-69
2022/06/01 02:30:37;;;;;;;20.75;15.10;;;;;;;13.74;56.41;101280.69;4974664;28;115855;-68
2022/06/01 02:33:08;;;;;;;20.42;14.82;;;;;;;13.77;56.32;101275.22;4973760;28;115794;-69
2022/06/01 02:35:43;;;;;;;19.48;14.73;;;;;;;13.81;56.30;101278.59;4968994;28;123792;-69
2022/06/01 02:38:15;;;;;;;20.85;14.77;;;;;;;13.82;56.41;101283.84;4973215;28;123526;-69
2022/06/01 02:40:43;;;;;;;21.77;14.98;;;;;;;13.86;56.41;101283.66;4969475;28;113894;-68
2022/06/01 02:43:10;;;;;;;19.95;14.63;;;;;;;13.88;56.26;101287.09;4971317;28;113063;-68
2022/06/01 02:45:37;;;;;;;23.42;15.63;;;;;;;13.91;56.36;101289.63;4973336;28;124936;-69
2022/06/01 02:48:04;;;;;;;21.52;15.38;;;;;;;13.93;56.48;101285.06;4986758;28;123431;-69
2022/06/01 02:50:33;;;;;;;22.60;15.55;;;;;;;13.96;56.59;101290.25;4984701;28;112878;-68
2022/06/01 02:53:00;;;;;;;24.00;16.35;;;;;;;13.97;56.43;101281.28;4987113;28;113055;-68
2022/06/01 02:55:29;;;;;;;22.60;16.17;;;;;;;13.99;56.69;101279.41;4973773;28;123985;-68
2022/06/01 02:57:57;;;;;;;22.40;16.42;;;;;;;14.03;56.55;101280.97;4970617;28;124083;-68
2022/06/01 03:00:27;;;;;;;22.48;16.83;;;;;;;14.04;56.67;101277.38;4971956;28;114665;-69
2022/06/01 03:02:58;;;;;;;23.02;15.60;;;;;;;14.04;56.51;101282.69;4973775;28;113850;-69
2022/06/01 03:05:33;;;;;;;22.95;15.85;;;;;;;14.06;56.81;101280.81;4986891;28;123830;-68
2022/06/01 03:08:01;;;;;;;20.65;14.68;;;;;;;14.08;56.56;101272.75;4989837;28;122715;-69
2022/06/01 03:10:28;;;;;;;20.00;15.18;;;;;;;14.09;56.29;101275.34;4973532;28;114606;-68
2022/06/01 03:12:56;;;;;;;19.25;14.60;;;;;;;14.08;56.60;101278.94;4975484;28;114689;-69
2022/06/01 03:15:25;;;;;;;21.02;15.43;;;;;;;14.09;56.62;101279.78;4971137;28;123176;-68
2022/06/01 03:17:53;;;;;;;22.13;15.43;;;;;;;14.07;56.25;101271.91;4970044;28;123712;-69
2022/06/01 03:20:23;;;;;;;22.30;15.38;;;;;;;14.08;56.55;101283.41;4969828;28;115316;-68
2022/06/01 03:22:57;;;;;;;21.57;15.23;;;;;;;14.06;56.23;101280.81;4968861;28;115038;-69
2022/06/01 03:25:24;;;;;;;20.52;15.30;;;;;;;14.04;56.34;101274.72;4970546;28;124357;-69
2022/06/01 03:27:57;;;;;;;23.33;16.33;;;;;;;14.04;56.34;101277.38;4969206;28;124303;-68
2022/06/01 03:30:25;;;;;;;21.77;14.93;;;;;;;14.00;56.35;101281.16;4971800;28;113794;-70
2022/06/01 03:32:53;;;;;;;23.10;15.68;;;;;;;13.97;56.28;101281.28;4972687;28;114608;-69
2022/06/01 03:35:23;;;;;;;24.15;16.55;;;;;;;13.95;56.33;101283.19;4970727;28;123999;-68
2022/06/01 03:37:50;;;;;;;23.15;16.02;;;;;;;13.92;56.57;101280.66;4966801;28;122471;-68
2022/06/01 03:40:19;;;;;;;22.80;15.75;;;;;;;13.90;56.43;101285.22;4973990;28;114174;-69
2022/06/01 03:42:46;;;;;;;23.83;16.27;;;;;;;13.87;56.27;101285.41;4969179;28;114162;-68
2022/06/01 03:47:59;;;;;;;21.30;14.73;;;;;;;13.81;56.73;101281.25;4974632;28;124210;-69
2022/06/01 03:50:28;;;;;;;22.77;16.27;;;;;;;13.78;56.52;101276.91;4974295;28;114807;-68
2022/06/01 03:52:55;;;;;;;24.35;16.00;;;;;;;13.76;56.38;101286.78;4978644;28;113959;-68
2022/06/01 03:55:23;;;;;;;24.08;15.77;;;;;;;13.74;56.63;101279.84;4976514;28;124444;-69
2022/06/01 03:57:50;;;;;;;24.63;16.63;;;;;;;13.71;56.45;101275.53;4978506;28;123699;-68
2022/06/01 04:00:25;;;;;;;24.98;16.25;;;;;;;13.69;56.67;101282.72;4978757;28;114230;-68
2022/06/01 04:02:53;;;;;;;23.92;16.77;;;;;;;13.67;56.35;101287.25;4976106;28;114131;-69
2022/06/01 04:05:22;;;;;;;24.02;16.58;;;;;;;13.64;56.76;101295.41;4979579;28;123882;-68
2022/06/01 04:07:50;;;;;;;24.42;16.80;;;;;;;13.62;56.80;101292.81;4974920;28;123833;-69
2022/06/01 04:10:17;;;;;;;25.30;16.95;;;;;;;13.62;56.67;101298.16;4982411;28;115207;-68
2022/06/01 04:12:44;;;;;;;25.63;16.58;;;;;;;13.60;56.89;101299.19;4985497;28;115298;-69
2022/06/01 04:15:11;;;;;;;24.92;15.63;;;;;;;13.60;56.88;101300.03;4989329;28;123868;-68
2022/06/01 04:17:38;;;;;;;24.63;15.43;;;;;;;13.61;56.52;101300.88;4977444;28;124280;-68
2022/06/01 04:20:07;;;;;;;24.77;16.48;;;;;;;13.61;56.79;101295.56;4983515;28;114414;-68
2022/06/01 04:22:38;;;;;;;24.25;16.40;;;;;;;13.61;57.04;101290.25;4979532;28;113805;-69
2022/06/01 04:25:08;;;;;;;25.30;17.00;;;;;;;13.60;57.05;101293.84;4979304;28;124130;-68
2022/06/01 04:27:38;;;;;;;24.85;16.88;;;;;;;13.59;57.04;101292.13;4981213;28;124107;-69
2022/06/01 04:30:08;;;;;;;26.25;16.98;;;;;;;13.60;57.09;101293.84;4981223;28;114013;-69
2022/06/01 04:32:35;;;;;;;26.48;16.70;;;;;;;13.62;57.34;101291.97;4981482;28;116212;-69
2022/06/01 04:35:04;;;;;;;26.08;16.67;;;;;;;13.65;57.18;101289.13;4983891;28;124663;-69
2022/06/01 04:37:31;;;;;;;25.95;17.35;;;;;;;13.66;57.18;101292.69;4980698;28;123798;-68
2022/06/01 04:39:58;;;;;;;26.02;16.88;;;;;;;13.69;57.42;101290.69;4980157;28;114679;-68
2022/06/01 04:42:25;;;;;;;23.10;15.68;;;;;;;13.72;57.41;101298.53;4984526;28;113506;-68
2022/06/01 04:44:52;;;;;;;26.98;16.73;;;;;;;13.80;57.96;101296.34;4982706;28;124118;-68
2022/06/01 04:47:20;;;;;;;26.65;16.08;;;;;;;13.92;58.09;101300.19;4983494;28;124591;-68
2022/06/01 04:49:47;;;;;;;26.42;16.17;;;;;;;14.04;58.53;101292.50;4979050;28;114792;-69
2022/06/01 04:52:14;;;;;;;20.85;13.88;;;;;;;14.17;58.24;101294.44;4977050;28;113997;-68
2022/06/01 04:54:42;;;;;;;20.35;14.15;;;;;;;14.29;58.18;101297.38;4974640;28;124012;-68
2022/06/01 04:57:09;;;;;;;21.38;13.25;;;;;;;14.40;57.97;101303.00;4980083;28;124455;-69
2022/06/01 04:59:36;;;;;;;19.92;13.43;;;;;;;14.50;57.83;101301.53;4994616;28;115108;-69
2022/06/01 05:02:04;;;;;;;19.50;12.95;;;;;;;14.56;57.57;101301.25;4975397;28;115237;-69
2022/06/01 05:04:32;;;;;;;20.17;12.85;;;;;;;14.62;57.32;101293.84;4978478;28;124246;-69
2022/06/01 05:07:00;;;;;;;19.55;13.20;;;;;;;14.64;56.99;101292.00;4992104;28;122846;-69
2022/06/01 05:09:27;;;;;;;21.35;13.10;;;;;;;14.67;56.89;101291.81;4981506;28;114353;-69
2022/06/01 05:11:54;;;;;;;19.08;13.05;;;;;;;14.67;56.81;101291.81;4978696;28;114420;-69
2022/06/01 05:14:21;;;;;;;19.10;13.50;;;;;;;14.68;56.91;101293.53;4976353;28;123485;-68
2022/06/01 05:16:49;;;;;;;20.35;13.00;;;;;;;14.69;56.73;101289.91;4973018;28;122897;-69
2022/06/01 05:19:18;;;;;;;23.38;14.13;;;;;;;14.68;56.70;101293.53;4974467;28;114389;-68
2022/06/01 05:21:45;;;;;;;19.77;14.07;;;;;;;14.65;56.61;101291.88;4976162;28;114041;-68
2022/06/01 05:24:12;;;;;;;22.23;13.90;;;;;;;14.66;56.77;101295.44;4976655;28;123237;-69
2022/06/01 05:26:39;;;;;;;23.33;13.93;;;;;;;14.67;56.87;101302.47;4974063;28;123646;-68
2022/06/01 05:29:07;;;;;;;19.38;13.88;;;;;;;14.67;56.82;101313.13;4986392;28;114479;-68
2022/06/01 05:31:34;;;;;;;23.90;13.65;;;;;;;14.65;56.90;101305.22;4974074;28;114010;-68
2022/06/01 05:34:01;;;;;;;22.33;13.82;;;;;;;14.68;57.02;101309.53;4973839;28;123971;-68
2022/06/01 05:36:29;;;;;;;21.35;13.10;;;;;;;14.70;57.18;101296.97;4974629;28;122962;-68
2022/06/01 05:38:56;;;;;;;21.38;13.23;;;;;;;14.71;57.09;101298.69;4976935;28;113881;-69
2022/06/01 05:41:23;;;;;;;19.77;12.55;;;;;;;14.74;57.11;101295.88;4973878;28;113827;-69
2022/06/01 05:43:52;;;;;;;20.30;13.32;;;;;;;14.76;57.05;101301.97;4972992;28;123905;-69
2022/06/01 05:46:19;;;;;;;17.60;12.05;;;;;;;14.78;57.07;101308.06;4988390;28;124477;-69
2022/06/01 05:48:46;;;;;;;22.08;13.18;;;;;;;14.81;57.08;101305.25;4976066;28;115107;-69
2022/06/01 05:51:13;;;;;;;21.73;12.45;;;;;;;14.86;56.97;101313.88;4970223;28;113805;-69
2022/06/01 05:53:41;;;;;;;19.55;12.45;;;;;;;14.93;57.14;101315.22;4974879;28;124302;-69
2022/06/01 05:56:08;;;;;;;20.80;13.02;;;;;;;14.96;57.40;101315.06;4981098;28;124357;-70
2022/06/01 05:58:35;;;;;;;21.02;12.55;;;;;;;15.01;57.27;101324.59;4973051;28;114617;-69
2022/06/01 06:01:06;;;;;;;18.45;12.15;;;;;;;15.05;57.30;101323.47;4973243;28;114143;-69
2022/06/01 06:03:34;;;;;;;15.93;11.38;;;;;;;15.09;57.20;101319.72;4969759;28;124173;-69
2022/06/01 06:06:12;;;;;;;17.48;11.98;;;;;;;15.12;57.30;101314.19;4976142;28;123612;-70
2022/06/01 06:08:51;;;;;;;18.60;11.80;;;;;;;15.18;57.15;101319.16;4970140;28;115790;-69
2022/06/01 06:11:25;;;;;;;18.02;11.40;;;;;;;15.22;57.30;101331.41;4975429;28;113183;-69
2022/06/01 06:13:53;;;;;;;18.67;11.95;;;;;;;15.29;57.25;101326.56;4976765;28;123069;-69
2022/06/01 06:16:21;;;;;;;18.90;11.85;;;;;;;15.38;57.37;101326.91;4968299;28;123911;-70
2022/06/01 06:18:50;;;;;;;18.00;11.82;;;;;;;15.48;57.37;101331.72;4970831;28;112968;-69
2022/06/01 06:21:18;;;;;;;17.70;11.60;;;;;;;15.58;57.45;101327.56;4989648;28;112403;-69
2022/06/01 06:23:45;;;;;;;17.13;10.80;;;;;;;15.69;57.42;101334.94;4980063;28;124834;-69
2022/06/01 06:26:13;;;;;;;19.27;11.50;;;;;;;15.76;57.46;101334.53;4975548;28;124366;-69
2022/06/01 06:28:40;;;;;;;20.33;11.05;;;;;;;15.88;57.48;101334.75;4978646;28;113543;-70
2022/06/01 06:31:07;;;;;;;14.25;10.63;;;;;;;16.00;57.38;101334.03;4976012;28;114056;-70
2022/06/01 06:33:34;;;;;;;15.10;10.40;;;;;;;16.12;57.38;101333.28;4987080;28;124253;-70
2022/06/01 06:36:05;;;;;;;13.68;9.85;;;;;;;16.26;57.32;101328.91;4978450;28;124961;-69
2022/06/01 06:38:35;;;;;;;18.08;10.55;;;;;;;16.42;57.33;101339.50;4981538;28;115425;-70
2022/06/01 06:41:04;;;;;;;16.45;10.25;;;;;;;16.54;57.11;101339.63;4988614;28;114679;-70
2022/06/01 06:43:33;;;;;;;15.63;9.82;;;;;;;16.66;56.94;101339.81;4985654;28;123746;-70
2022/06/01 06:46:04;;;;;;;15.63;10.30;;;;;;;16.77;56.74;101340.00;4977269;28;126483;-70
2022/06/01 06:48:31;;;;;;;13.63;10.15;;;;;;;16.86;56.55;101339.44;4989826;28;114049;-70
2022/06/01 06:50:58;;;;;;;14.80;9.50;;;;;;;16.97;56.62;101340.56;4989648;28;114099;-70
2022/06/01 06:53:26;;;;;;;16.25;9.10;;;;;;;17.09;56.57;101350.50;4989699;28;123943;-70
2022/06/01 06:55:54;;;;;;;13.75;8.68;;;;;;;17.22;56.60;101346.06;4990063;28;124188;-70
2022/06/01 06:58:22;;;;;;;12.43;8.55;;;;;;;17.39;56.66;101352.16;4985677;28;114282;-70
2022/06/01 07:00:49;;;;;;;15.23;8.70;;;;;;;17.56;56.56;101346.53;4969673;28;113805;-70
2022/06/01 07:03:17;;;;;;;12.57;8.43;;;;;;;17.75;56.38;101347.97;4977794;28;123469;-70
2022/06/01 07:08:30;;;;;;;10.23;7.00;;;;;;;18.04;55.73;101357.59;4990187;28;114168;-68
2022/06/01 07:10:59;;;;;;;11.32;6.90;;;;;;;18.18;55.56;101361.19;4989506;28;114203;-68
2022/06/01 07:13:27;;;;;;;12.15;6.88;;;;;;;18.33;55.11;101365.47;4979233;28;123518;-68
2022/06/01 07:16:14;;;;;;;11.25;6.90;;;;;;;18.41;54.78;101367.63;4983506;28;123226;-68
2022/06/01 07:18:43;;;;;;;8.63;6.20;;;;;;;18.52;54.93;101374.91;4984378;28;114466;-68
2022/06/01 07:21:11;;;;;;;9.70;6.00;;;;;;;18.64;54.80;101374.91;4989275;28;114174;-68
2022/06/01 07:23:38;;;;;;;10.30;5.55;;;;;;;18.78;54.60;101365.88;4987808;28;123587;-69
2022/06/01 07:26:08;;;;;;;9.38;6.15;;;;;;;18.92;54.28;101370.28;4988037;28;123832;-69
2022/06/01 07:28:36;;;;;;;7.75;5.75;;;;;;;19.04;54.14;101371.22;4975406;28;115669;-69
2022/06/01 07:31:04;;;;;;;10.35;5.70;;;;;;;19.13;53.89;101365.19;4989061;28;115395;-68
2022/06/01 07:33:31;;;;;;;10.32;5.72;;;;;;;19.24;53.72;101367.94;4989778;28;123929;-69
2022/06/01 07:36:00;;;;;;;6.47;5.10;;;;;;;19.35;53.42;101369.84;4969028;28;122875;-69
2022/06/01 07:44:06;;;;;;;7.15;4.97;;;;;;;19.67;52.92;101363.91;4987870;28;124582;-69
2022/06/01 07:46:34;;;;;;;8.35;5.68;;;;;;;19.75;53.39;101366.03;4977445;28;123552;-69
2022/06/01 07:49:03;;;;;;;6.07;4.60;;;;;;;19.82;52.81;101367.31;4974097;28;114236;-69
2022/06/01 07:51:50;;;;;;;7.10;4.63;;;;;;;19.82;52.08;101367.31;4974791;28;113908;-69
2022/06/01 07:54:17;;;;;;;6.50;4.50;;;;;;;19.79;52.19;101367.53;4989527;28;123856;-69
2022/06/01 07:56:44;;;;;;;6.47;4.63;;;;;;;19.82;51.71;101370.00;4989903;28;124325;-68
2022/06/01 07:59:12;;;;;;;7.00;4.25;;;;;;;19.81;51.50;101370.94;4971225;28;115230;-68
2022/06/01 08:01:39;;;;;;;6.88;4.25;;;;;;;19.85;51.53;101377.81;4979781;28;113899;-68
2022/06/01 08:04:08;;;;;;;6.30;4.00;;;;;;;19.95;51.73;101373.47;4984935;28;123477;-69
2022/06/01 08:06:38;;;;;;;7.18;4.35;;;;;;;20.09;51.87;101374.22;4977880;28;122961;-69
2022/06/01 08:09:23;;;;;;;7.15;4.47;;;;;;;20.19;51.39;101375.22;4986233;28;115373;-68
2022/06/01 08:14:46;;;;;;;5.15;3.67;;;;;;;20.36;50.90;101366.72;4966149;28;123990;-68
2022/06/01 08:17:13;;;;;;;4.72;3.70;;;;;;;20.43;50.48;101367.06;4973292;28;123600;-69
2022/06/01 08:19:41;;;;;;;6.43;3.85;;;;;;;20.46;50.13;101374.06;4984030;28;115652;-69
2022/06/01 08:22:08;;;;;;;5.65;3.67;;;;;;;20.41;49.65;101369.88;4985682;28;114948;-69
2022/06/01 08:24:36;;;;;;;5.93;3.53;;;;;;;20.38;49.39;101375.53;4983893;28;125645;-69
2022/06/01 08:27:03;;;;;;;5.45;3.80;;;;;;;20.32;49.24;101373.28;4988211;28;123635;-69
2022/06/01 08:29:30;;;;;;;5.80;3.80;;;;;;;20.30;49.14;101372.56;4988860;28;114022;-69
2022/06/01 08:31:57;;;;;;;4.25;3.50;;;;;;;20.28;49.12;101377.19;4987522;28;113224;-69
2022/06/01 08:34:24;;;;;;;7.28;3.75;;;;;;;20.26;49.00;101373.78;4987733;28;122846;-69
2022/06/01 08:36:51;;;;;;;6.97;3.60;;;;;;;20.21;48.91;101373.25;4992556;28;124112;-68
2022/06/01 08:39:18;;;;;;;4.70;3.45;;;;;;;20.17;48.93;101383.44;4993274;28;114030;-68
2022/06/01 08:41:45;;;;;;;6.38;3.47;;;;;;;20.16;48.54;101375.47;4979308;28;113616;-68
2022/06/01 08:44:22;;;;;;;5.97;3.78;;;;;;;20.19;48.46;101375.22;4981177;28;122931;-68
2022/06/01 08:46:51;;;;;;;6.18;4.15;;;;;;;20.26;48.86;101365.69;4991435;28;124224;-68
2022/06/01 08:49:26;;;;;;;5.63;3.85;;;;;;;20.39;48.82;101369.16;4996377;28;114165;-68
2022/06/01 08:51:54;;;;;;;5.35;3.47;;;;;;;20.53;48.69;101372.59;5003270;28;114109;-68
2022/06/01 08:54:22;;;;;;;4.72;3.47;;;;;;;20.68;48.58;101365.16;4995339;28;125063;-68
2022/06/01 08:57:10;;;;;;;4.45;3.50;;;;;;;20.78;48.35;101369.69;5007651;28;121992;-68
2022/06/01 08:59:42;;;;;;;6.15;4.28;;;;;;;20.86;47.68;101368.25;5013190;28;114428;-69
2022/06/01 09:02:34;;;;;;;6.63;4.18;;;;;;;20.86;47.98;101374.47;4998167;28;111957;-68
2022/06/01 09:05:07;;;;;;;5.35;3.95;;;;;;;20.85;47.45;101371.91;5007946;28;124645;-69
2022/06/01 09:08:00;;;;;;;4.13;3.55;;;;;;;20.82;47.39;101377.56;5009025;28;124641;-68
2022/06/01 09:10:51;;;;;;;5.30;3.60;;;;;;;20.77;47.15;101380.59;5012178;28;116270;-68
2022/06/01 09:13:24;;;;;;;5.68;4.30;;;;;;;20.71;46.80;101381.94;5000547;28;115865;-68
2022/06/01 09:16:32;;;;;;;4.65;3.92;;;;;;;20.59;46.86;101382.88;5010865;28;123402;-68
2022/06/01 09:18:59;;;;;;;6.25;4.40;;;;;;;20.49;46.86;101376.50;4990771;28;124571;-68
2022/06/01 09:24:25;;;;;;;5.30;4.70;;;;;;;20.32;46.82;101378.66;4990332;28;114150;-68
2022/06/01 09:27:02;;;;;;;4.22;3.50;;;;;;;20.24;46.54;101383.78;4990409;28;124424;-68
2022/06/01 09:29:35;;;;;;;6.05;4.40;;;;;;;20.26;47.01;101387.22;4974013;28;122944;-68
2022/06/01 09:32:06;;;;;;;6.38;4.47;;;;;;;20.30;47.11;101388.69;4972126;28;113971;-68
2022/06/01 09:34:46;;;;;;;5.40;4.57;;;;;;;20.35;47.09;101386.50;4985004;28;114006;-68
2022/06/01 09:37:24;;;;;;;6.13;4.68;;;;;;;20.40;47.29;101387.03;4989922;28;124126;-69
2022/06/01 09:39:57;;;;;;;5.93;4.20;;;;;;;20.47;46.98;101379.31;4990466;28;124165;-68
2022/06/01 09:42:39;;;;;;;5.47;3.22;;;;;;;20.52;46.70;101376.28;4991113;28;114410;-68
2022/06/01 09:45:38;;;;;;;5.75;3.60;;;;;;;20.53;46.53;101377.97;4989575;28;113847;-68
2022/06/01 09:48:27;;;;;;;6.47;4.50;;;;;;;20.53;46.25;101372.59;4988600;28;123985;-68
2022/06/01 09:51:16;;;;;;;6.25;3.70;;;;;;;20.47;46.33;101378.47;4988235;28;123927;-68
2022/06/01 09:53:53;;;;;;;7.70;4.13;;;;;;;20.41;46.26;101386.03;4983328;28;114689;-69
2022/06/01 09:56:29;;;;;;;6.85;4.38;;;;;;;20.33;46.36;101391.16;4990463;28;112957;-69
2022/06/01 10:07:27;;;;;;;7.18;4.38;;;;;;;19.75;46.74;101433.25;4989516;28;113760;-69
2022/06/01 10:09:59;;;;;;;4.10;3.15;;;;;;;19.46;46.86;101452.34;4987259;28;123707;-69
2022/06/01 10:12:41;;;;;;;6.78;3.63;;;;;;;19.10;46.97;101451.34;4986110;28;124655;-69
2022/06/01 10:15:44;;;;;;;3.38;2.95;;;;;;;18.74;47.18;101438.66;4984696;28;114610;-69
2022/06/01 10:18:15;;;;;;;3.72;3.08;;;;;;;18.48;47.84;101442.19;4972462;28;113594;-69
2022/06/01 10:20:45;;;;;;;4.43;3.05;;;;;;;18.33;48.41;101435.19;4979349;28;123807;-69
2022/06/01 10:23:24;;;;;;;4.40;2.95;;;;;;;18.23;49.00;101434.97;4986471;28;124036;-69
2022/06/01 10:26:17;;;;;;;3.65;3.03;;;;;;;18.19;49.49;101443.31;4980203;28;114460;-69
2022/06/01 10:28:50;;;;;;;5.63;2.92;;;;;;;18.19;49.64;101443.31;4986071;28;113830;-69
2022/06/01 10:31:27;;;;;;;4.70;3.33;;;;;;;18.21;50.24;101454.78;4987325;28;125015;-69
2022/06/01 10:34:02;;;;;;;3.72;3.33;;;;;;;18.28;50.63;101461.47;4977849;28;122834;-69
2022/06/01 10:36:45;;;;;;;4.20;3.15;;;;;;;18.37;51.07;101468.88;4974774;28;114265;-69
2022/06/01 10:39:29;;;;;;;4.05;2.90;;;;;;;18.48;51.13;101470.84;4987352;28;113783;-69
2022/06/01 10:42:02;;;;;;;3.72;2.53;;;;;;;18.56;50.55;101473.84;4990297;28;123288;-69
2022/06/01 10:44:47;;;;;;;3.85;2.80;;;;;;;18.63;50.57;101468.94;4986235;28;125081;-69
2022/06/01 10:47:22;;;;;;;3.60;3.00;;;;;;;18.66;50.68;101474.06;4987518;28;114389;-69
2022/06/01 10:50:08;;;;;;;5.50;3.47;;;;;;;18.70;50.30;101486.31;4983229;28;113724;-69
2022/06/01 10:52:45;;;;;;;4.03;2.90;;;;;;;18.68;50.08;101483.75;4970276;28;123910;-69
2022/06/01 10:55:20;;;;;;;3.97;3.58;;;;;;;18.62;50.14;101477.94;4968197;28;123867;-69
2022/06/01 10:57:49;;;;;;;5.88;3.75;;;;;;;18.53;50.21;101475.88;4967149;28;115309;-69
2022/06/01 11:00:19;;;;;;;4.88;3.67;;;;;;;18.42;50.34;101476.59;4985899;28;114649;-70
2022/06/01 11:03:24;;;;;;;4.85;3.60;;;;;;;18.29;50.51;101473.91;4974812;28;123975;-69
2022/06/01 11:06:06;;;;;;;5.05;3.22;;;;;;;18.18;50.59;101460.38;4989388;28;122880;-69
2022/06/01 11:08:39;;;;;;;4.55;3.03;;;;;;;18.12;50.69;101455.41;4982060;28;113214;-69
2022/06/01 11:11:15;;;;;;;4.68;3.13;;;;;;;18.07;50.86;101461.94;4985244;28;114241;-69
2022/06/01 11:13:57;;;;;;;3.95;3.17;;;;;;;18.08;51.20;101452.94;4987297;28;124560;-69
2022/06/01 11:16:45;;;;;;;3.33;2.90;;;;;;;18.15;51.61;101457.88;4972929;28;124476;-69
2022/06/01 11:19:25;;;;;;;4.32;3.20;;;;;;;18.18;51.64;101463.06;4972176;28;113533;-69
2022/06/01 11:22:05;;;;;;;5.25;2.88;;;;;;;18.21;51.59;101458.31;4984195;28;113843;-69
2022/06/01 11:24:55;;;;;;;4.00;3.20;;;;;;;18.26;51.39;101449.97;4977179;28;123736;-69
2022/06/01 11:27:28;;;;;;;3.95;3.42;;;;;;;18.29;51.42;101449.78;4972601;28;124105;-69
2022/06/01 11:30:14;;;;;;;5.38;4.38;;;;;;;18.36;51.57;101451.06;4986961;28;115616;-69
2022/06/01 11:33:15;;;;;;;4.53;4.07;;;;;;;18.44;51.70;101448.72;4980172;28;114364;-69
2022/06/01 11:35:47;;;;;;;5.57;4.30;;;;;;;18.55;51.46;101450.66;4974590;28;123784;-69
2022/06/01 11:38:24;;;;;;;5.40;4.38;;;;;;;18.65;51.45;101453.59;4979663;28;124307;-69
2022/06/01 11:41:13;;;;;;;6.35;4.82;;;;;;;18.75;51.52;101451.97;4981164;28;115756;-69
2022/06/01 11:44:04;;;;;;;5.50;4.30;;;;;;;18.86;51.32;101444.06;4980853;28;114487;-69
2022/06/01 11:46:37;;;;;;;4.90;3.90;;;;;;;18.97;51.20;101450.50;4982368;28;123958;-69
2022/06/01 11:49:25;;;;;;;5.38;3.70;;;;;;;19.09;51.27;101449.63;4975988;28;124229;-69
2022/06/01 11:51:52;;;;;;;4.13;3.70;;;;;;;19.24;50.95;101453.03;4975324;28;114981;-69
2022/06/01 11:54:35;;;;;;;5.32;3.65;;;;;;;19.40;50.80;101450.06;4980769;28;114933;-69
2022/06/01 11:57:16;;;;;;;6.18;3.90;;;;;;;19.53;50.36;101452.72;4976302;28;123644;-69
2022/06/01 12:00:14;;;;;;;4.65;3.80;;;;;;;19.65;50.32;101452.69;4970833;28;123976;-69